createdAt,value
2022-10-21T00:00:49.872Z,1009.88
2022-10-21T00:01:49.909Z,1009.91
2022-10-21T00:02:49.869Z,1009.90
2022-10-21T00:03:49.877Z,1009.84
2022-10-21T00:04:49.841Z,1009.78
2022-10-21T00:05:49.821Z,1009.78
2022-10-21T00:06:49.841Z,1009.80
2022-10-21T00:07:49.797Z,1009.78
2022-10-21T00:08:49.831Z,1009.79
2022-10-21T00:09:49.778Z,1009.75
2022-10-21T00:10:49.790Z,1009.70
2022-10-21T00:11:49.806Z,1009.71
2022-10-21T00:12:49.731Z,1009.79
2022-10-21T00:13:49.736Z,1009.81
2022-10-21T00:14:52.543Z,1009.81
2022-10-21T00:15:50.727Z,1009.82
2022-10-21T00:16:49.765Z,1009.74
2022-10-21T00:17:49.706Z,1009.72
2022-10-21T00:18:49.694Z,1009.71
2022-10-21T00:19:49.671Z,1009.76
2022-10-21T00:20:49.715Z,1009.70
2022-10-21T00:21:49.702Z,1009.70
2022-10-21T00:22:49.652Z,1009.66
2022-10-21T00:23:49.628Z,1009.63
2022-10-21T00:24:49.601Z,1009.59
2022-10-21T00:25:49.595Z,1009.64
2022-10-21T00:26:49.639Z,1009.65
2022-10-21T00:27:49.583Z,1009.62
2022-10-21T00:28:49.585Z,1009.56
2022-10-21T00:29:49.541Z,1009.59
2022-10-21T00:30:49.530Z,1009.57
2022-10-21T00:31:49.575Z,1009.63
2022-10-21T00:32:49.525Z,1009.64
2022-10-21T00:33:49.500Z,1009.64
2022-10-21T00:34:49.506Z,1009.62
2022-10-21T00:35:49.482Z,1009.63
2022-10-21T00:36:49.520Z,1009.65
2022-10-21T00:37:49.452Z,1009.68
2022-10-21T00:38:49.447Z,1009.64
2022-10-21T00:39:49.449Z,1009.63
2022-10-21T00:40:49.425Z,1009.66
2022-10-21T00:41:49.460Z,1009.63
2022-10-21T00:42:49.661Z,1009.64
2022-10-21T00:43:49.382Z,1009.65
2022-10-21T00:44:49.384Z,1009.62
2022-10-21T00:45:49.352Z,1009.58
2022-10-21T00:46:49.395Z,1009.58
2022-10-21T00:47:49.345Z,1009.50
2022-10-21T00:48:49.343Z,1009.46
2022-10-21T00:49:49.321Z,1009.38
2022-10-21T00:50:49.302Z,1009.34
2022-10-21T00:51:49.334Z,1009.32
2022-10-21T00:52:49.298Z,1009.32
2022-10-21T00:53:49.271Z,1009.30
2022-10-21T00:54:49.272Z,1009.24
2022-10-21T00:55:49.255Z,1009.26
2022-10-21T00:56:49.291Z,1009.23
2022-10-21T00:57:49.240Z,1009.23
2022-10-21T00:58:49.199Z,1009.27
2022-10-21T00:59:49.200Z,1009.32
2022-10-21T01:00:49.203Z,1009.32
2022-10-21T01:01:49.231Z,1009.39
2022-10-21T01:02:49.185Z,1009.28
2022-10-21T01:03:49.155Z,1009.17
2022-10-21T01:04:49.151Z,1009.14
2022-10-21T01:06:49.171Z,1009.13
2022-10-21T01:07:49.123Z,1009.11
2022-10-21T01:08:49.136Z,1009.08
2022-10-21T01:09:49.100Z,1009.05
2022-10-21T01:10:49.085Z,1008.99
2022-10-21T01:11:49.124Z,1009.04
2022-10-21T01:12:49.058Z,1009.01
2022-10-21T01:13:49.092Z,1008.94
2022-10-21T01:14:49.061Z,1008.89
2022-10-21T01:15:49.022Z,1008.88
2022-10-21T01:16:49.050Z,1008.90
2022-10-21T01:17:49.353Z,1008.91
2022-10-21T01:18:48.981Z,1008.89
2022-10-21T01:19:48.979Z,1008.84
2022-10-21T01:20:48.980Z,1008.88
2022-10-21T01:21:49.019Z,1008.89
2022-10-21T01:22:48.959Z,1008.90
2022-10-21T01:23:48.948Z,1008.89
2022-10-21T01:24:48.921Z,1008.91
2022-10-21T01:25:48.918Z,1008.87
2022-10-21T01:26:48.929Z,1008.87
2022-10-21T01:27:48.885Z,1008.89
2022-10-21T01:28:48.866Z,1008.89
2022-10-21T01:29:48.862Z,1008.86
2022-10-21T01:30:48.841Z,1008.88
2022-10-21T01:31:48.885Z,1008.88
2022-10-21T01:32:48.845Z,1008.92
2022-10-21T01:33:48.825Z,1008.89
2022-10-21T01:34:48.817Z,1008.91
2022-10-21T01:35:48.810Z,1008.87
2022-10-21T01:36:48.830Z,1008.92
2022-10-21T01:37:48.813Z,1008.92
2022-10-21T01:38:48.753Z,1008.88
2022-10-21T01:39:48.755Z,1008.85
2022-10-21T01:40:48.736Z,1008.83
2022-10-21T01:41:48.766Z,1008.84
2022-10-21T01:42:48.723Z,1008.82
2022-10-21T01:43:48.699Z,1008.80
2022-10-21T01:44:48.696Z,1008.79
2022-10-21T01:45:48.682Z,1008.78
2022-10-21T01:46:48.695Z,1008.77
2022-10-21T01:47:48.665Z,1008.78
2022-10-21T01:48:48.628Z,1008.79
2022-10-21T01:49:48.642Z,1008.73
2022-10-21T01:50:48.607Z,1008.73
2022-10-21T01:51:48.658Z,1008.77
2022-10-21T01:52:48.595Z,1008.76
2022-10-21T01:53:48.585Z,1008.74
2022-10-21T01:54:48.578Z,1008.77
2022-10-21T01:55:48.556Z,1008.79
2022-10-21T01:56:48.588Z,1008.80
2022-10-21T01:57:48.537Z,1008.77
2022-10-21T01:58:48.540Z,1008.81
2022-10-21T01:59:48.520Z,1008.79
2022-10-21T02:00:48.540Z,1008.78
2022-10-21T02:01:48.535Z,1008.77
2022-10-21T02:02:48.474Z,1008.74
2022-10-21T02:03:48.478Z,1008.70
2022-10-21T02:04:48.453Z,1008.65
2022-10-21T02:05:48.441Z,1008.67
2022-10-21T02:06:48.468Z,1008.61
2022-10-21T02:07:48.423Z,1008.66
2022-10-21T02:08:48.446Z,1008.58
2022-10-21T02:09:48.402Z,1008.51
2022-10-21T02:10:48.377Z,1008.45
2022-10-21T02:11:48.417Z,1008.43
2022-10-21T02:12:48.357Z,1008.47
2022-10-21T02:13:48.357Z,1008.36
2022-10-21T02:14:48.330Z,1008.33
2022-10-21T02:15:48.342Z,1008.22
2022-10-21T02:16:48.350Z,1008.19
2022-10-21T02:17:48.302Z,1008.14
2022-10-21T02:18:48.298Z,1008.08
2022-10-21T02:19:48.281Z,1008.05
2022-10-21T02:20:48.275Z,1008.00
2022-10-21T02:21:48.298Z,1007.98
2022-10-21T02:22:48.238Z,1007.88
2022-10-21T02:23:48.243Z,1007.83
2022-10-21T02:24:48.218Z,1007.81
2022-10-21T02:25:48.220Z,1007.75
2022-10-21T02:26:48.256Z,1007.73
2022-10-21T02:27:48.178Z,1007.69
2022-10-21T02:28:48.156Z,1007.73
2022-10-21T02:29:48.158Z,1007.77
2022-10-21T02:30:48.135Z,1007.79
2022-10-21T02:31:48.170Z,1007.81
2022-10-21T02:32:48.132Z,1007.75
2022-10-21T02:33:48.127Z,1007.74
2022-10-21T02:34:48.092Z,1007.70
2022-10-21T02:35:48.150Z,1007.69
2022-10-21T02:36:48.126Z,1007.68
2022-10-21T02:37:48.080Z,1007.70
2022-10-21T02:38:48.063Z,1007.63
2022-10-21T02:39:48.037Z,1007.62
2022-10-21T02:40:48.040Z,1007.54
2022-10-21T02:41:48.067Z,1007.47
2022-10-21T02:42:48.019Z,1007.54
2022-10-21T02:43:48.001Z,1007.61
2022-10-21T02:44:48.028Z,1007.67
2022-10-21T02:45:47.958Z,1007.80
2022-10-21T02:46:48.008Z,1007.88
2022-10-21T02:47:47.937Z,1007.88
2022-10-21T02:48:47.945Z,1007.79
2022-10-21T02:49:47.944Z,1007.79
2022-10-21T02:50:47.907Z,1007.78
2022-10-21T02:51:47.958Z,1007.77
2022-10-21T02:52:47.895Z,1007.81
2022-10-21T02:53:47.880Z,1007.84
2022-10-21T02:54:47.877Z,1007.88
2022-10-21T02:55:47.861Z,1007.94
2022-10-21T02:56:47.893Z,1007.90
2022-10-21T02:57:47.838Z,1007.85
2022-10-21T02:58:47.821Z,1007.86
2022-10-21T02:59:47.805Z,1007.93
2022-10-21T03:00:47.837Z,1007.97
2022-10-21T03:01:47.817Z,1007.91
2022-10-21T03:02:47.770Z,1007.81
2022-10-21T03:03:47.783Z,1007.78
2022-10-21T03:04:47.756Z,1007.80
2022-10-21T03:05:47.737Z,1007.80
2022-10-21T03:06:47.774Z,1007.75
2022-10-21T03:07:47.720Z,1007.76
2022-10-21T03:08:47.740Z,1007.70
2022-10-21T03:09:47.703Z,1007.66
2022-10-21T03:10:49.210Z,1007.61
2022-10-21T03:11:47.714Z,1007.57
2022-10-21T03:12:47.643Z,1007.58
2022-10-21T03:13:47.666Z,1007.55
2022-10-21T03:14:47.633Z,1007.56
2022-10-21T03:15:47.645Z,1007.55
2022-10-21T03:16:47.673Z,1007.60
2022-10-21T03:17:47.600Z,1007.51
2022-10-21T03:18:47.591Z,1007.51
2022-10-21T03:19:47.579Z,1007.53
2022-10-21T03:20:47.581Z,1007.52
2022-10-21T03:21:47.614Z,1007.56
2022-10-21T03:22:47.555Z,1007.58
2022-10-21T03:23:47.540Z,1007.59
2022-10-21T03:24:47.523Z,1007.63
2022-10-21T03:25:47.513Z,1007.71
2022-10-21T03:26:47.548Z,1007.66
2022-10-21T03:27:47.504Z,1007.70
2022-10-21T03:28:47.503Z,1007.73
2022-10-21T03:29:47.459Z,1007.79
2022-10-21T03:30:47.431Z,1007.83
2022-10-21T03:31:47.478Z,1007.78
2022-10-21T03:32:47.411Z,1007.81
2022-10-21T03:33:47.411Z,1007.85
2022-10-21T03:34:47.415Z,1007.86
2022-10-21T03:35:47.392Z,1007.91
2022-10-21T03:36:47.434Z,1007.86
2022-10-21T03:37:47.408Z,1007.74
2022-10-21T03:38:47.360Z,1007.69
2022-10-21T03:39:47.363Z,1007.63
2022-10-21T03:40:47.339Z,1007.65
2022-10-21T03:41:47.372Z,1007.68
2022-10-21T03:42:47.312Z,1007.71
2022-10-21T03:43:47.317Z,1007.78
2022-10-21T03:44:47.293Z,1007.74
2022-10-21T03:45:47.283Z,1007.75
2022-10-21T03:46:47.312Z,1007.72
2022-10-21T03:47:47.260Z,1007.68
2022-10-21T03:48:47.249Z,1007.64
2022-10-21T03:49:47.240Z,1007.65
2022-10-21T03:50:47.233Z,1007.61
2022-10-21T03:51:47.273Z,1007.63
2022-10-21T03:52:47.195Z,1007.64
2022-10-21T03:53:47.195Z,1007.61
2022-10-21T03:54:47.182Z,1007.60
2022-10-21T03:55:47.181Z,1007.59
2022-10-21T03:56:47.209Z,1007.54
2022-10-21T03:57:47.140Z,1007.52
2022-10-21T03:58:47.137Z,1007.53
2022-10-21T03:59:47.112Z,1007.57
2022-10-21T04:00:47.090Z,1007.55
2022-10-21T04:01:47.192Z,1007.53
2022-10-21T04:02:47.100Z,1007.53
2022-10-21T04:03:47.080Z,1007.55
2022-10-21T04:04:47.053Z,1007.51
2022-10-21T04:05:47.061Z,1007.47
2022-10-21T04:06:47.087Z,1007.42
2022-10-21T04:07:50.676Z,1007.39
2022-10-21T04:08:48.084Z,1007.40
2022-10-21T04:09:47.026Z,1007.38
2022-10-21T04:10:47.013Z,1007.33
2022-10-21T04:11:47.040Z,1007.31
2022-10-21T04:12:46.963Z,1007.28
2022-10-21T04:13:46.992Z,1007.23
2022-10-21T04:14:46.957Z,1007.18
2022-10-21T04:15:46.946Z,1007.11
2022-10-21T04:16:48.014Z,1007.17
2022-10-21T04:17:46.910Z,1007.16
2022-10-21T04:18:46.912Z,1007.15
2022-10-21T04:19:46.889Z,1007.17
2022-10-21T04:20:46.891Z,1007.21
2022-10-21T04:21:46.943Z,1007.19
2022-10-21T04:22:46.836Z,1007.20
2022-10-21T04:23:46.848Z,1007.23
2022-10-21T04:24:46.815Z,1007.20
2022-10-21T04:25:46.833Z,1007.14
2022-10-21T04:26:46.870Z,1007.08
2022-10-21T04:27:46.809Z,1006.95
2022-10-21T04:28:46.794Z,1006.94
2022-10-21T04:29:46.769Z,1006.89
2022-10-21T04:30:46.756Z,1006.92
2022-10-21T04:31:46.821Z,1006.85
2022-10-21T04:32:46.734Z,1006.85
2022-10-21T04:33:46.737Z,1006.80
2022-10-21T04:34:46.715Z,1006.77
2022-10-21T04:35:46.694Z,1006.70
2022-10-21T04:36:46.742Z,1006.72
2022-10-21T04:37:46.702Z,1006.78
2022-10-21T04:38:46.674Z,1006.77
2022-10-21T04:39:46.684Z,1006.80
2022-10-21T04:40:46.654Z,1006.81
2022-10-21T04:41:46.676Z,1006.81
2022-10-21T04:42:46.615Z,1006.79
2022-10-21T04:43:46.604Z,1006.78
2022-10-21T04:44:46.605Z,1006.76
2022-10-21T04:45:46.597Z,1006.76
2022-10-21T04:46:46.624Z,1006.73
2022-10-21T04:47:46.584Z,1006.76
2022-10-21T04:48:46.544Z,1006.76
2022-10-21T04:49:46.557Z,1006.75
2022-10-21T04:50:46.554Z,1006.81
2022-10-21T04:51:46.569Z,1006.77
2022-10-21T04:52:46.523Z,1006.77
2022-10-21T04:53:46.507Z,1006.74
2022-10-21T04:54:46.483Z,1006.73
2022-10-21T04:55:46.479Z,1006.75
2022-10-21T04:56:46.504Z,1006.74
2022-10-21T04:57:46.471Z,1006.78
2022-10-21T04:58:46.499Z,1006.78
2022-10-21T04:59:46.413Z,1006.78
2022-10-21T05:00:46.452Z,1006.76
2022-10-21T05:01:46.432Z,1006.78
2022-10-21T05:02:46.384Z,1006.79
2022-10-21T05:03:46.388Z,1006.72
2022-10-21T05:04:46.370Z,1006.71
2022-10-21T05:05:46.373Z,1006.70
2022-10-21T05:06:46.396Z,1006.68
2022-10-21T05:07:46.331Z,1006.63
2022-10-21T05:08:46.355Z,1006.58
2022-10-21T05:09:46.320Z,1006.59
2022-10-21T05:10:46.318Z,1006.53
2022-10-21T05:11:46.349Z,1006.51
2022-10-21T05:12:46.297Z,1006.51
2022-10-21T05:13:46.281Z,1006.50
2022-10-21T05:14:46.258Z,1006.48
2022-10-21T05:15:46.241Z,1006.47
2022-10-21T05:16:46.285Z,1006.39
2022-10-21T05:17:46.227Z,1006.36
2022-10-21T05:18:46.210Z,1006.31
2022-10-21T05:19:46.204Z,1006.26
2022-10-21T05:20:46.194Z,1006.27
2022-10-21T05:21:46.221Z,1006.24
2022-10-21T05:22:46.181Z,1006.29
2022-10-21T05:23:46.152Z,1006.27
2022-10-21T05:24:46.159Z,1006.29
2022-10-21T05:25:46.132Z,1006.25
2022-10-21T05:26:46.171Z,1006.31
2022-10-21T05:27:46.102Z,1006.35
2022-10-21T05:28:46.180Z,1006.35
2022-10-21T05:29:46.059Z,1006.37
2022-10-21T05:30:46.059Z,1006.34
2022-10-21T05:31:46.082Z,1006.38
2022-10-21T05:32:46.075Z,1006.34
2022-10-21T05:33:46.033Z,1006.31
2022-10-21T05:34:46.043Z,1006.30
2022-10-21T05:35:46.009Z,1006.32
2022-10-21T05:36:46.051Z,1006.31
2022-10-21T05:37:45.996Z,1006.30
2022-10-21T05:38:45.973Z,1006.33
2022-10-21T05:39:45.969Z,1006.32
2022-10-21T05:40:45.952Z,1006.31
2022-10-21T05:41:48.017Z,1006.30
2022-10-21T05:42:45.949Z,1006.32
2022-10-21T05:43:45.970Z,1006.29
2022-10-21T05:44:45.924Z,1006.34
2022-10-21T05:45:45.909Z,1006.34
2022-10-21T05:46:45.944Z,1006.34
2022-10-21T05:47:45.867Z,1006.34
2022-10-21T05:48:45.875Z,1006.32
2022-10-21T05:49:45.849Z,1006.35
2022-10-21T05:50:45.854Z,1006.39
2022-10-21T05:51:45.894Z,1006.45
2022-10-21T05:52:45.832Z,1006.49
2022-10-21T05:53:45.813Z,1006.49
2022-10-21T05:54:45.788Z,1006.45
2022-10-21T05:55:45.801Z,1006.47
2022-10-21T05:56:45.863Z,1006.48
2022-10-21T05:57:45.769Z,1006.48
2022-10-21T05:58:45.748Z,1006.49
2022-10-21T05:59:45.723Z,1006.53
2022-10-21T06:00:45.789Z,1006.48
2022-10-21T06:01:45.760Z,1006.42
2022-10-21T06:02:45.708Z,1006.38
2022-10-21T06:03:45.696Z,1006.33
2022-10-21T06:04:45.678Z,1006.35
2022-10-21T06:05:45.668Z,1006.37
2022-10-21T06:06:45.750Z,1006.37
2022-10-21T06:07:45.637Z,1006.34
2022-10-21T06:08:45.699Z,1006.34
2022-10-21T06:09:45.636Z,1006.29
2022-10-21T06:10:45.620Z,1006.25
2022-10-21T06:11:45.646Z,1006.28
2022-10-21T06:12:45.588Z,1006.21
2022-10-21T06:13:45.566Z,1006.20
2022-10-21T06:14:45.572Z,1006.23
2022-10-21T06:15:50.243Z,1006.22
2022-10-21T06:16:46.589Z,1006.29
2022-10-21T06:17:45.544Z,1006.26
2022-10-21T06:18:45.515Z,1006.20
2022-10-21T06:19:48.669Z,1006.22
2022-10-21T06:20:46.511Z,1006.24
2022-10-21T06:21:45.541Z,1006.14
2022-10-21T06:22:45.488Z,1006.15
2022-10-21T06:23:45.475Z,1006.10
2022-10-21T06:24:45.452Z,1006.15
2022-10-21T06:25:45.423Z,1006.12
2022-10-21T06:26:45.446Z,1006.10
2022-10-21T06:27:45.468Z,1006.07
2022-10-21T06:28:45.449Z,1006.04
2022-10-21T06:29:45.387Z,1006.05
2022-10-21T06:30:45.381Z,1006.08
2022-10-21T06:31:45.343Z,1006.04
2022-10-21T06:32:45.407Z,1006.09
2022-10-21T06:33:45.354Z,1006.04
2022-10-21T06:34:45.330Z,1006.11
2022-10-21T06:35:45.326Z,1006.15
2022-10-21T06:36:45.313Z,1006.20
2022-10-21T06:37:45.361Z,1006.26
2022-10-21T06:38:45.303Z,1006.24
2022-10-21T06:39:45.264Z,1006.24
2022-10-21T06:40:45.292Z,1006.29
2022-10-21T06:41:45.264Z,1006.28
2022-10-21T06:42:45.302Z,1006.30
2022-10-21T06:43:45.234Z,1006.27
2022-10-21T06:44:45.234Z,1006.26
2022-10-21T06:45:45.195Z,1006.29
2022-10-21T06:46:45.207Z,1006.26
2022-10-21T06:47:45.233Z,1006.31
2022-10-21T06:48:45.180Z,1006.32
2022-10-21T06:49:45.172Z,1006.29
2022-10-21T06:50:45.163Z,1006.32
2022-10-21T06:51:45.129Z,1006.29
2022-10-21T06:52:45.176Z,1006.31
2022-10-21T06:53:45.112Z,1006.36
2022-10-21T06:54:45.130Z,1006.35
2022-10-21T06:55:45.094Z,1006.37
2022-10-21T06:56:45.107Z,1006.34
2022-10-21T06:57:45.127Z,1006.40
2022-10-21T06:58:45.077Z,1006.43
2022-10-21T06:59:45.032Z,1006.41
2022-10-21T07:00:45.020Z,1006.45
2022-10-21T07:02:01.272Z,1006.44
2022-10-21T07:02:46.047Z,1006.43
2022-10-21T07:03:44.988Z,1006.48
2022-10-21T07:04:45.008Z,1006.51
2022-10-21T07:05:44.983Z,1006.50
2022-10-21T07:06:44.972Z,1006.56
2022-10-21T07:07:45.132Z,1006.53
2022-10-21T07:08:54.033Z,1006.55
2022-10-21T07:09:45.999Z,1006.49
2022-10-21T07:10:44.922Z,1006.49
2022-10-21T07:11:44.921Z,1006.48
2022-10-21T07:12:44.959Z,1006.45
2022-10-21T07:13:44.911Z,1006.50
2022-10-21T07:14:44.873Z,1006.48
2022-10-21T07:15:44.895Z,1006.46
2022-10-21T07:16:44.862Z,1006.37
2022-10-21T07:17:44.899Z,1006.36
2022-10-21T07:18:44.835Z,1006.34
2022-10-21T07:19:44.818Z,1006.35
2022-10-21T07:20:44.782Z,1006.31
2022-10-21T07:21:44.806Z,1006.34
2022-10-21T07:22:44.829Z,1006.36
2022-10-21T07:23:44.796Z,1006.43
2022-10-21T07:24:44.749Z,1006.38
2022-10-21T07:25:44.757Z,1006.43
2022-10-21T07:26:44.745Z,1006.33
2022-10-21T07:27:47.532Z,1006.31
2022-10-21T07:28:44.712Z,1006.37
2022-10-21T07:29:44.681Z,1006.34
2022-10-21T07:30:44.671Z,1006.34
2022-10-21T07:31:44.656Z,1006.35
2022-10-21T07:32:44.727Z,1006.33
2022-10-21T07:33:44.660Z,1006.36
2022-10-21T07:34:44.637Z,1006.34
2022-10-21T07:35:44.640Z,1006.39
2022-10-21T07:36:44.622Z,1006.46
2022-10-21T07:37:44.655Z,1006.44
2022-10-21T07:38:44.606Z,1006.37
2022-10-21T07:39:44.571Z,1006.38
2022-10-21T07:40:44.569Z,1006.33
2022-10-21T07:41:44.553Z,1006.22
2022-10-21T07:42:44.585Z,1006.17
2022-10-21T07:43:44.533Z,1006.15
2022-10-21T07:44:44.542Z,1006.13
2022-10-21T07:45:44.508Z,1006.09
2022-10-21T07:46:44.502Z,1006.10
2022-10-21T07:47:44.535Z,1006.16
2022-10-21T07:48:44.479Z,1006.24
2022-10-21T07:49:44.474Z,1006.42
2022-10-21T07:50:44.485Z,1006.57
2022-10-21T07:51:44.456Z,1006.59
2022-10-21T07:52:51.786Z,1006.61
2022-10-21T07:53:45.407Z,1006.56
2022-10-21T07:54:44.423Z,1006.55
2022-10-21T07:55:44.376Z,1006.46
2022-10-21T07:56:44.393Z,1006.48
2022-10-21T07:57:44.416Z,1006.51
2022-10-21T07:58:44.347Z,1006.49
2022-10-21T07:59:44.332Z,1006.51
2022-10-21T08:00:44.368Z,1006.43
2022-10-21T08:01:45.089Z,1006.45
2022-10-21T08:02:44.373Z,1006.44
2022-10-21T08:03:44.293Z,1006.48
2022-10-21T08:04:44.285Z,1006.48
2022-10-21T08:05:44.266Z,1006.49
2022-10-21T08:06:44.272Z,1006.47
2022-10-21T08:07:44.314Z,1006.46
2022-10-21T08:08:44.312Z,1006.38
2022-10-21T08:09:44.240Z,1006.38
2022-10-21T08:10:44.287Z,1006.42
2022-10-21T08:11:44.232Z,1006.39
2022-10-21T08:12:44.252Z,1006.34
2022-10-21T08:13:44.199Z,1006.29
2022-10-21T08:14:44.181Z,1006.27
2022-10-21T08:15:44.177Z,1006.24
2022-10-21T08:16:44.160Z,1006.22
2022-10-21T08:17:44.188Z,1006.20
2022-10-21T08:18:44.126Z,1006.16
2022-10-21T08:19:44.162Z,1006.12
2022-10-21T08:20:44.121Z,1006.10
2022-10-21T08:21:44.085Z,1006.13
2022-10-21T08:22:44.126Z,1006.14
2022-10-21T08:23:44.095Z,1006.09
2022-10-21T08:24:44.072Z,1006.07
2022-10-21T08:25:44.037Z,1006.09
2022-10-21T08:26:44.028Z,1006.03
2022-10-21T08:27:44.055Z,1006.13
2022-10-21T08:28:44.050Z,1006.12
2022-10-21T08:29:43.982Z,1006.16
2022-10-21T08:30:43.976Z,1006.11
2022-10-21T08:31:44.006Z,1006.17
2022-10-21T08:32:44.017Z,1006.15
2022-10-21T08:33:43.953Z,1006.23
2022-10-21T08:34:43.947Z,1006.21
2022-10-21T08:35:43.933Z,1006.19
2022-10-21T08:36:43.949Z,1006.14
2022-10-21T08:37:43.981Z,1006.16
2022-10-21T08:38:43.905Z,1006.17
2022-10-21T08:39:43.907Z,1006.15
2022-10-21T08:40:43.886Z,1006.20
2022-10-21T08:41:43.867Z,1006.21
2022-10-21T08:42:43.903Z,1006.23
2022-10-21T08:43:43.846Z,1006.26
2022-10-21T08:44:43.842Z,1006.28
2022-10-21T08:45:43.812Z,1006.25
2022-10-21T08:46:43.819Z,1006.23
2022-10-21T08:47:43.845Z,1006.23
2022-10-21T08:48:43.771Z,1006.24
2022-10-21T08:49:43.765Z,1006.33
2022-10-21T08:50:43.747Z,1006.33
2022-10-21T08:51:43.797Z,1006.30
2022-10-21T08:52:43.809Z,1006.32
2022-10-21T08:53:43.719Z,1006.29
2022-10-21T08:54:43.715Z,1006.27
2022-10-21T08:55:43.702Z,1006.16
2022-10-21T08:56:43.673Z,1006.07
2022-10-21T08:57:43.715Z,1006.10
2022-10-21T08:58:43.656Z,1006.07
2022-10-21T08:59:43.643Z,1005.96
2022-10-21T09:00:43.627Z,1005.94
2022-10-21T09:01:43.630Z,1005.94
2022-10-21T09:02:43.707Z,1006.01
2022-10-21T09:03:43.613Z,1006.04
2022-10-21T09:04:43.589Z,1006.03
2022-10-21T09:05:43.585Z,1006.00
2022-10-21T09:06:43.573Z,1005.96
2022-10-21T09:07:43.605Z,1005.96
2022-10-21T09:08:43.644Z,1006.01
2022-10-21T09:09:43.523Z,1005.92
2022-10-21T09:10:43.549Z,1005.88
2022-10-21T09:11:43.508Z,1005.91
2022-10-21T09:12:43.555Z,1006.00
2022-10-21T09:13:43.492Z,1005.97
2022-10-21T09:14:43.455Z,1005.97
2022-10-21T09:15:43.459Z,1005.87
2022-10-21T09:16:43.454Z,1005.84
2022-10-21T09:17:43.516Z,1005.83
2022-10-21T09:18:43.428Z,1005.76
2022-10-21T09:19:43.414Z,1005.72
2022-10-21T09:20:43.407Z,1005.80
2022-10-21T09:21:43.404Z,1005.80
2022-10-21T09:22:43.409Z,1005.79
2022-10-21T09:23:43.436Z,1005.76
2022-10-21T09:24:43.372Z,1005.71
2022-10-21T09:25:43.338Z,1005.66
2022-10-21T09:26:43.323Z,1005.59
2022-10-21T09:27:55.587Z,1005.56
2022-10-21T09:28:44.340Z,1005.55
2022-10-21T09:29:43.298Z,1005.51
2022-10-21T09:30:43.280Z,1005.51
2022-10-21T09:31:43.414Z,1005.52
2022-10-21T09:32:43.271Z,1005.50
2022-10-21T09:33:43.304Z,1005.52
2022-10-21T09:34:43.249Z,1005.54
2022-10-21T09:35:43.235Z,1005.56
2022-10-21T09:36:43.231Z,1005.58
2022-10-21T09:37:43.234Z,1005.59
2022-10-21T09:38:43.251Z,1005.64
2022-10-21T09:39:43.195Z,1005.66
2022-10-21T09:40:43.172Z,1005.68
2022-10-21T09:41:43.174Z,1005.63
2022-10-21T09:42:47.255Z,1005.61
2022-10-21T09:43:43.187Z,1005.55
2022-10-21T09:44:43.124Z,1005.55
2022-10-21T09:45:43.112Z,1005.56
2022-10-21T09:46:43.103Z,1005.53
2022-10-21T09:47:43.115Z,1005.52
2022-10-21T09:49:08.136Z,1005.49
2022-10-21T09:50:05.835Z,1005.50
2022-10-21T09:50:44.059Z,1005.43
2022-10-21T09:51:43.055Z,1005.49
2022-10-21T09:52:43.126Z,1005.50
2022-10-21T09:53:50.006Z,1005.50
2022-10-21T09:54:44.015Z,1005.48
2022-10-21T09:55:42.993Z,1005.46
2022-10-21T09:56:42.970Z,1005.42
2022-10-21T09:57:42.973Z,1005.45
2022-10-21T09:58:43.002Z,1005.39
2022-10-21T10:00:42.954Z,1005.31
2022-10-21T10:01:42.971Z,1005.36
2022-10-21T10:02:42.935Z,1005.39
2022-10-21T10:03:42.959Z,1005.35
2022-10-21T10:04:42.886Z,1005.38
2022-10-21T10:05:42.887Z,1005.39
2022-10-21T10:06:42.865Z,1005.38
2022-10-21T10:07:42.842Z,1005.32
2022-10-21T10:08:43.020Z,1005.32
2022-10-21T10:09:42.834Z,1005.35
2022-10-21T10:10:42.826Z,1005.31
2022-10-21T10:11:42.801Z,1005.37
2022-10-21T10:12:42.824Z,1005.39
2022-10-21T10:13:42.854Z,1005.45
2022-10-21T10:14:42.786Z,1005.36
2022-10-21T10:15:42.779Z,1005.33
2022-10-21T10:16:42.756Z,1005.30
2022-10-21T10:17:42.744Z,1005.17
2022-10-21T10:18:42.782Z,1005.16
2022-10-21T10:19:42.725Z,1005.14
2022-10-21T10:20:42.715Z,1005.19
2022-10-21T10:21:42.703Z,1005.18
2022-10-21T10:22:42.693Z,1005.17
2022-10-21T10:23:42.733Z,1005.22
2022-10-21T10:24:42.667Z,1005.17
2022-10-21T10:25:42.644Z,1005.18
2022-10-21T10:26:42.651Z,1005.15
2022-10-21T10:27:42.636Z,1005.14
2022-10-21T10:28:42.681Z,1005.11
2022-10-21T10:29:42.612Z,1005.07
2022-10-21T10:30:42.584Z,1005.04
2022-10-21T10:31:42.598Z,1005.03
2022-10-21T10:32:42.566Z,1005.02
2022-10-21T10:33:42.605Z,1005.11
2022-10-21T10:34:42.558Z,1005.07
2022-10-21T10:35:42.566Z,1005.16
2022-10-21T10:36:42.517Z,1005.18
2022-10-21T10:38:42.554Z,1005.17
2022-10-21T10:39:42.495Z,1005.16
2022-10-21T10:40:42.505Z,1005.18
2022-10-21T10:41:42.464Z,1005.12
2022-10-21T10:42:42.470Z,1005.13
2022-10-21T10:43:42.483Z,1005.11
2022-10-21T10:44:42.443Z,1005.08
2022-10-21T10:45:42.427Z,1005.12
2022-10-21T10:46:42.439Z,1005.09
2022-10-21T10:47:42.403Z,1005.09
2022-10-21T10:48:42.463Z,1005.13
2022-10-21T10:49:42.387Z,1005.11
2022-10-21T10:50:42.373Z,1005.11
2022-10-21T10:51:42.348Z,1005.15
2022-10-21T10:52:42.356Z,1005.12
2022-10-21T10:53:42.398Z,1005.04
2022-10-21T10:54:42.348Z,1005.03
2022-10-21T10:55:42.359Z,1005.01
2022-10-21T10:56:42.285Z,1005.15
2022-10-21T10:57:45.942Z,1005.11
2022-10-21T10:58:43.319Z,1005.13
2022-10-21T10:59:42.271Z,1005.13
2022-10-21T11:00:42.336Z,1005.14
2022-10-21T11:01:42.244Z,1005.19
2022-10-21T11:02:42.245Z,1005.18
2022-10-21T11:03:42.258Z,1005.14
2022-10-21T11:04:42.249Z,1005.07
2022-10-21T11:05:42.187Z,1005.03
2022-10-21T11:06:42.203Z,1004.96
2022-10-21T11:07:42.407Z,1004.95
2022-10-21T11:08:42.268Z,1004.93
2022-10-21T11:09:42.153Z,1004.91
2022-10-21T11:10:42.182Z,1004.90
2022-10-21T11:11:42.143Z,1004.88
2022-10-21T11:12:42.118Z,1004.90
2022-10-21T11:13:42.470Z,1004.91
2022-10-21T11:14:42.081Z,1004.93
2022-10-21T11:15:42.072Z,1004.95
2022-10-21T11:16:59.107Z,1004.94
2022-10-21T11:17:43.076Z,1004.94
2022-10-21T11:18:42.780Z,1004.98
2022-10-21T11:19:42.036Z,1004.93
2022-10-21T11:20:42.043Z,1004.97
2022-10-21T11:21:42.003Z,1004.92
2022-10-21T11:22:42.012Z,1004.91
2022-10-21T11:23:42.033Z,1004.91
2022-10-21T11:24:41.953Z,1004.86
2022-10-21T11:25:41.968Z,1004.84
2022-10-21T11:26:41.951Z,1004.82
2022-10-21T11:27:42.173Z,1004.80
2022-10-21T11:28:41.979Z,1004.86
2022-10-21T11:29:41.976Z,1004.87
2022-10-21T11:30:41.903Z,1004.89
2022-10-21T11:31:59.612Z,1004.85
2022-10-21T11:32:42.894Z,1004.89
2022-10-21T11:33:41.938Z,1004.91
2022-10-21T11:34:41.898Z,1004.92
2022-10-21T11:35:41.865Z,1004.89
2022-10-21T11:36:41.825Z,1004.87
2022-10-21T11:37:41.928Z,1004.87
2022-10-21T11:38:41.882Z,1004.83
2022-10-21T11:39:41.804Z,1004.85
2022-10-21T11:40:41.791Z,1004.88
2022-10-21T11:41:41.775Z,1004.85
2022-10-21T11:42:42.174Z,1004.88
2022-10-21T11:43:41.813Z,1004.88
2022-10-21T11:44:41.759Z,1004.86
2022-10-21T11:45:41.732Z,1004.80
2022-10-21T11:46:41.833Z,1004.83
2022-10-21T11:47:41.711Z,1004.83
2022-10-21T11:48:41.748Z,1004.84
2022-10-21T11:49:41.666Z,1004.82
2022-10-21T11:50:41.672Z,1004.78
2022-10-21T11:51:41.682Z,1004.77
2022-10-21T11:52:42.038Z,1004.77
2022-10-21T11:53:41.682Z,1004.77
2022-10-21T11:54:50.297Z,1004.72
2022-10-21T11:55:42.607Z,1004.71
2022-10-21T11:56:41.624Z,1004.71
2022-10-21T11:57:41.619Z,1004.76
2022-10-21T11:58:41.620Z,1004.73
2022-10-21T11:59:41.567Z,1004.69
2022-10-21T12:00:41.573Z,1004.73
2022-10-21T12:01:41.544Z,1004.66
2022-10-21T12:02:42.040Z,1004.67
2022-10-21T12:03:41.609Z,1004.67
2022-10-21T12:04:41.506Z,1004.69
2022-10-21T12:05:41.507Z,1004.64
2022-10-21T12:06:41.491Z,1004.66
2022-10-21T12:07:41.484Z,1004.67
2022-10-21T12:08:44.519Z,1004.69